sensor_id;sensor_type;location;lat;lon;timestamp;temperature;humidity
11650;DHT22;5881;48.522;7.682;2024-01-30T00:01:52;1.70;1.00
11650;DHT22;5881;48.522;7.682;2024-01-30T00:04:18;1.50;1.00
11650;DHT22;5881;48.522;7.682;2024-01-30T00:06:44;1.40;1.00
11650;DHT22;5881;48.522;7.682;2024-01-30T00:09:10;1.40;1.00
11650;DHT22;5881;48.522;7.682;2024-01-30T00:11:36;1.40;1.00
11650;DHT22;5881;48.522;7.682;2024-01-30T00:14:03;1.30;1.00
11650;DHT22;5881;48.522;7.682;2024-01-30T00:16:29;1.30;1.00
11650;DHT22;5881;48.522;7.682;2024-01-30T00:18:55;1.20;1.00
11650;DHT22;5881;48.522;7.682;2024-01-30T00:21:21;1.10;1.00
11650;DHT22;5881;48.522;7.682;2024-01-30T00:23:47;1.40;11.60
11650;DHT22;5881;48.522;7.682;2024-01-30T00:26:13;1.10;1.00
11650;DHT22;5881;48.522;7.682;2024-01-30T00:28:40;1.10;48.00
11650;DHT22;5881;48.522;7.682;2024-01-30T00:31:06;1.10;24.90
11650;DHT22;5881;48.522;7.682;2024-01-30T00:33:31;1.10;21.00
11650;DHT22;5881;48.522;7.682;2024-01-30T00:35:57;1.00;24.30
11650;DHT22;5881;48.522;7.682;2024-01-30T00:38:23;1.00;32.10
11650;DHT22;5881;48.522;7.682;2024-01-30T00:40:48;1.00;28.70
11650;DHT22;5881;48.522;7.682;2024-01-30T00:43:15;0.90;38.50
11650;DHT22;5881;48.522;7.682;2024-01-30T00:45:41;1.00;88.30
11650;DHT22;5881;48.522;7.682;2024-01-30T00:48:06;0.90;66.40
11650;DHT22;5881;48.522;7.682;2024-01-30T00:50:32;0.90;53.70
11650;DHT22;5881;48.522;7.682;2024-01-30T00:52:58;0.90;99.20
11650;DHT22;5881;48.522;7.682;2024-01-30T00:55:23;0.90;98.70
11650;DHT22;5881;48.522;7.682;2024-01-30T00:57:49;0.90;99.90
11650;DHT22;5881;48.522;7.682;2024-01-30T01:00:15;0.90;99.90
11650;DHT22;5881;48.522;7.682;2024-01-30T01:02:43;0.80;58.80
11650;DHT22;5881;48.522;7.682;2024-01-30T01:05:09;0.90;77.40
11650;DHT22;5881;48.522;7.682;2024-01-30T01:07:35;0.90;99.90
11650;DHT22;5881;48.522;7.682;2024-01-30T01:10:00;1.00;99.90
11650;DHT22;5881;48.522;7.682;2024-01-30T01:12:26;0.90;15.00
11650;DHT22;5881;48.522;7.682;2024-01-30T01:14:52;0.90;1.00
11650;DHT22;5881;48.522;7.682;2024-01-30T01:17:17;1.00;53.00
11650;DHT22;5881;48.522;7.682;2024-01-30T01:19:44;0.90;1.00
11650;DHT22;5881;48.522;7.682;2024-01-30T01:22:10;0.90;1.00
11650;DHT22;5881;48.522;7.682;2024-01-30T01:24:36;0.90;1.00
11650;DHT22;5881;48.522;7.682;2024-01-30T01:27:02;0.90;1.00
11650;DHT22;5881;48.522;7.682;2024-01-30T01:29:27;0.80;1.00
11650;DHT22;5881;48.522;7.682;2024-01-30T01:31:56;0.80;1.00
11650;DHT22;5881;48.522;7.682;2024-01-30T01:34:22;0.70;1.00
11650;DHT22;5881;48.522;7.682;2024-01-30T01:36:49;0.70;1.00
11650;DHT22;5881;48.522;7.682;2024-01-30T01:39:14;0.60;1.00
11650;DHT22;5881;48.522;7.682;2024-01-30T01:41:40;0.80;1.00
11650;DHT22;5881;48.522;7.682;2024-01-30T01:44:05;0.90;25.20
11650;DHT22;5881;48.522;7.682;2024-01-30T01:46:33;0.90;1.00
11650;DHT22;5881;48.522;7.682;2024-01-30T01:49:00;0.80;1.00
11650;DHT22;5881;48.522;7.682;2024-01-30T01:51:28;0.80;1.00
11650;DHT22;5881;48.522;7.682;2024-01-30T01:53:56;0.80;1.00
11650;DHT22;5881;48.522;7.682;2024-01-30T01:56:26;0.90;1.00
11650;DHT22;5881;48.522;7.682;2024-01-30T01:58:54;1.00;1.00
11650;DHT22;5881;48.522;7.682;2024-01-30T02:01:21;1.00;1.00
11650;DHT22;5881;48.522;7.682;2024-01-30T02:03:47;0.90;1.00
11650;DHT22;5881;48.522;7.682;2024-01-30T02:06:16;1.00;1.00
11650;DHT22;5881;48.522;7.682;2024-01-30T02:08:42;1.10;1.00
11650;DHT22;5881;48.522;7.682;2024-01-30T02:11:08;1.20;1.00
11650;DHT22;5881;48.522;7.682;2024-01-30T02:13:35;1.10;1.00
11650;DHT22;5881;48.522;7.682;2024-01-30T02:16:01;1.10;1.00
11650;DHT22;5881;48.522;7.682;2024-01-30T02:18:26;1.30;1.00
11650;DHT22;5881;48.522;7.682;2024-01-30T02:20:54;1.20;13.20
11650;DHT22;5881;48.522;7.682;2024-01-30T02:23:20;1.30;99.90
11650;DHT22;5881;48.522;7.682;2024-01-30T02:25:45;1.40;99.90
11650;DHT22;5881;48.522;7.682;2024-01-30T02:28:12;1.50;99.90
11650;DHT22;5881;48.522;7.682;2024-01-30T02:30:38;1.60;99.90
11650;DHT22;5881;48.522;7.682;2024-01-30T02:33:04;1.60;99.90
11650;DHT22;5881;48.522;7.682;2024-01-30T02:35:30;1.70;99.90
11650;DHT22;5881;48.522;7.682;2024-01-30T02:37:55;1.70;99.90
11650;DHT22;5881;48.522;7.682;2024-01-30T02:40:21;1.50;99.90
11650;DHT22;5881;48.522;7.682;2024-01-30T02:42:46;1.40;99.90
11650;DHT22;5881;48.522;7.682;2024-01-30T02:45:12;1.40;99.90
11650;DHT22;5881;48.522;7.682;2024-01-30T02:47:39;1.30;99.90
11650;DHT22;5881;48.522;7.682;2024-01-30T02:50:05;1.30;99.90
11650;DHT22;5881;48.522;7.682;2024-01-30T02:52:30;1.30;99.90
11650;DHT22;5881;48.522;7.682;2024-01-30T02:54:56;1.30;99.90
11650;DHT22;5881;48.522;7.682;2024-01-30T02:57:22;1.20;99.90
11650;DHT22;5881;48.522;7.682;2024-01-30T02:59:47;1.20;99.90
11650;DHT22;5881;48.522;7.682;2024-01-30T03:02:13;1.20;99.90
11650;DHT22;5881;48.522;7.682;2024-01-30T03:04:41;1.20;99.90
11650;DHT22;5881;48.522;7.682;2024-01-30T03:07:07;1.20;99.90
11650;DHT22;5881;48.522;7.682;2024-01-30T03:09:32;1.10;99.90
11650;DHT22;5881;48.522;7.682;2024-01-30T03:11:58;1.10;99.90
11650;DHT22;5881;48.522;7.682;2024-01-30T03:14:24;1.00;99.90
11650;DHT22;5881;48.522;7.682;2024-01-30T03:16:50;1.00;99.90
11650;DHT22;5881;48.522;7.682;2024-01-30T03:19:15;1.00;99.90
11650;DHT22;5881;48.522;7.682;2024-01-30T03:21:41;1.10;99.90
11650;DHT22;5881;48.522;7.682;2024-01-30T03:24:06;1.00;99.90
11650;DHT22;5881;48.522;7.682;2024-01-30T03:26:32;0.90;99.90
11650;DHT22;5881;48.522;7.682;2024-01-30T03:28:58;0.90;99.90
11650;DHT22;5881;48.522;7.682;2024-01-30T03:31:23;0.80;99.90
11650;DHT22;5881;48.522;7.682;2024-01-30T03:33:49;0.80;99.90
11650;DHT22;5881;48.522;7.682;2024-01-30T03:36:16;0.80;99.90
11650;DHT22;5881;48.522;7.682;2024-01-30T03:38:41;0.70;99.90
11650;DHT22;5881;48.522;7.682;2024-01-30T03:41:08;0.60;99.90
11650;DHT22;5881;48.522;7.682;2024-01-30T03:43:35;0.60;99.90
11650;DHT22;5881;48.522;7.682;2024-01-30T03:46:01;0.60;99.90
11650;DHT22;5881;48.522;7.682;2024-01-30T03:48:27;0.60;99.90
11650;DHT22;5881;48.522;7.682;2024-01-30T03:50:53;0.70;99.90
11650;DHT22;5881;48.522;7.682;2024-01-30T03:53:18;0.70;99.90
11650;DHT22;5881;48.522;7.682;2024-01-30T03:55:44;0.60;99.90
11650;DHT22;5881;48.522;7.682;2024-01-30T03:58:10;0.60;99.90
11650;DHT22;5881;48.522;7.682;2024-01-30T04:00:35;0.60;99.90
11650;DHT22;5881;48.522;7.682;2024-01-30T04:03:01;0.60;99.90
11650;DHT22;5881;48.522;7.682;2024-01-30T04:05:26;0.70;99.90
11650;DHT22;5881;48.522;7.682;2024-01-30T04:07:52;0.70;99.90
11650;DHT22;5881;48.522;7.682;2024-01-30T04:10:17;0.70;99.90
11650;DHT22;5881;48.522;7.682;2024-01-30T04:12:43;0.60;99.90
11650;DHT22;5881;48.522;7.682;2024-01-30T04:15:09;0.60;99.90
11650;DHT22;5881;48.522;7.682;2024-01-30T04:17:34;0.60;99.90
11650;DHT22;5881;48.522;7.682;2024-01-30T04:20:00;0.60;99.90
11650;DHT22;5881;48.522;7.682;2024-01-30T04:22:26;0.60;99.90
11650;DHT22;5881;48.522;7.682;2024-01-30T04:24:51;0.50;99.90
11650;DHT22;5881;48.522;7.682;2024-01-30T04:27:17;0.50;99.80
11650;DHT22;5881;48.522;7.682;2024-01-30T04:29:42;0.50;99.90
11650;DHT22;5881;48.522;7.682;2024-01-30T04:32:09;0.50;99.90
11650;DHT22;5881;48.522;7.682;2024-01-30T04:34:36;0.50;99.90
11650;DHT22;5881;48.522;7.682;2024-01-30T04:37:02;0.50;99.90
11650;DHT22;5881;48.522;7.682;2024-01-30T04:39:28;0.50;99.90
11650;DHT22;5881;48.522;7.682;2024-01-30T04:41:54;0.50;99.90
11650;DHT22;5881;48.522;7.682;2024-01-30T04:44:19;0.60;99.90
11650;DHT22;5881;48.522;7.682;2024-01-30T04:46:45;0.50;99.90
11650;DHT22;5881;48.522;7.682;2024-01-30T04:49:11;0.50;99.90
11650;DHT22;5881;48.522;7.682;2024-01-30T04:51:36;0.50;99.90
11650;DHT22;5881;48.522;7.682;2024-01-30T04:54:02;0.40;99.90
11650;DHT22;5881;48.522;7.682;2024-01-30T04:56:27;0.40;99.90
11650;DHT22;5881;48.522;7.682;2024-01-30T04:58:53;0.50;99.90
11650;DHT22;5881;48.522;7.682;2024-01-30T05:01:19;0.60;99.90
11650;DHT22;5881;48.522;7.682;2024-01-30T05:03:45;0.50;99.90
11650;DHT22;5881;48.522;7.682;2024-01-30T05:06:10;0.50;99.90
11650;DHT22;5881;48.522;7.682;2024-01-30T05:08:36;0.50;99.90
11650;DHT22;5881;48.522;7.682;2024-01-30T05:11:02;0.70;99.90
11650;DHT22;5881;48.522;7.682;2024-01-30T05:13:31;0.50;99.90
11650;DHT22;5881;48.522;7.682;2024-01-30T05:15:57;0.50;99.90
11650;DHT22;5881;48.522;7.682;2024-01-30T05:18:23;0.50;99.90
11650;DHT22;5881;48.522;7.682;2024-01-30T05:20:50;0.60;99.90
11650;DHT22;5881;48.522;7.682;2024-01-30T05:23:16;0.60;99.90
11650;DHT22;5881;48.522;7.682;2024-01-30T05:25:42;0.60;99.90
11650;DHT22;5881;48.522;7.682;2024-01-30T05:28:07;0.70;99.90
11650;DHT22;5881;48.522;7.682;2024-01-30T05:30:33;0.50;95.50
11650;DHT22;5881;48.522;7.682;2024-01-30T05:32:58;0.50;74.30
11650;DHT22;5881;48.522;7.682;2024-01-30T05:35:24;0.50;93.60
11650;DHT22;5881;48.522;7.682;2024-01-30T05:37:50;0.50;86.80
11650;DHT22;5881;48.522;7.682;2024-01-30T05:40:16;0.40;80.00
11650;DHT22;5881;48.522;7.682;2024-01-30T05:42:42;0.50;99.90
11650;DHT22;5881;48.522;7.682;2024-01-30T05:45:07;0.50;99.90
11650;DHT22;5881;48.522;7.682;2024-01-30T05:47:34;0.50;99.90
11650;DHT22;5881;48.522;7.682;2024-01-30T05:49:59;0.50;99.90
11650;DHT22;5881;48.522;7.682;2024-01-30T05:52:25;0.50;59.70
11650;DHT22;5881;48.522;7.682;2024-01-30T05:54:51;0.60;99.90
11650;DHT22;5881;48.522;7.682;2024-01-30T05:57:16;0.60;42.10
11650;DHT22;5881;48.522;7.682;2024-01-30T05:59:44;0.70;33.60
11650;DHT22;5881;48.522;7.682;2024-01-30T06:02:11;0.60;1.00
11650;DHT22;5881;48.522;7.682;2024-01-30T06:04:36;0.60;1.00
11650;DHT22;5881;48.522;7.682;2024-01-30T06:07:02;0.50;1.00
11650;DHT22;5881;48.522;7.682;2024-01-30T06:09:28;0.50;1.00
11650;DHT22;5881;48.522;7.682;2024-01-30T06:11:54;0.40;1.00
11650;DHT22;5881;48.522;7.682;2024-01-30T06:14:20;0.40;1.00
11650;DHT22;5881;48.522;7.682;2024-01-30T06:16:49;0.40;1.00
11650;DHT22;5881;48.522;7.682;2024-01-30T06:19:15;0.40;11.10
11650;DHT22;5881;48.522;7.682;2024-01-30T06:21:41;0.40;31.50
11650;DHT22;5881;48.522;7.682;2024-01-30T06:24:06;0.30;14.60
11650;DHT22;5881;48.522;7.682;2024-01-30T06:26:32;0.30;61.50
11650;DHT22;5881;48.522;7.682;2024-01-30T06:28:58;0.30;99.90
11650;DHT22;5881;48.522;7.682;2024-01-30T06:31:23;0.40;99.90
11650;DHT22;5881;48.522;7.682;2024-01-30T06:33:49;0.40;99.90
11650;DHT22;5881;48.522;7.682;2024-01-30T06:36:16;0.40;56.60
11650;DHT22;5881;48.522;7.682;2024-01-30T06:38:41;0.30;52.80
11650;DHT22;5881;48.522;7.682;2024-01-30T06:41:07;0.30;63.20
11650;DHT22;5881;48.522;7.682;2024-01-30T06:43:33;0.40;97.20
11650;DHT22;5881;48.522;7.682;2024-01-30T06:45:58;0.40;99.90
11650;DHT22;5881;48.522;7.682;2024-01-30T06:48:25;0.40;93.30
11650;DHT22;5881;48.522;7.682;2024-01-30T06:50:53;0.40;88.20
11650;DHT22;5881;48.522;7.682;2024-01-30T06:53:19;0.60;84.80
11650;DHT22;5881;48.522;7.682;2024-01-30T06:55:45;0.50;99.70
11650;DHT22;5881;48.522;7.682;2024-01-30T06:58:10;0.50;42.10
11650;DHT22;5881;48.522;7.682;2024-01-30T07:00:36;0.50;21.50
11650;DHT22;5881;48.522;7.682;2024-01-30T07:03:02;0.40;1.00
11650;DHT22;5881;48.522;7.682;2024-01-30T07:05:27;0.50;1.00
11650;DHT22;5881;48.522;7.682;2024-01-30T07:07:54;0.50;1.00
11650;DHT22;5881;48.522;7.682;2024-01-30T07:10:20;0.50;1.00
11650;DHT22;5881;48.522;7.682;2024-01-30T07:12:46;0.50;1.00
11650;DHT22;5881;48.522;7.682;2024-01-30T07:15:11;0.70;1.00
11650;DHT22;5881;48.522;7.682;2024-01-30T07:17:40;0.70;1.00
11650;DHT22;5881;48.522;7.682;2024-01-30T07:20:06;0.70;1.00
11650;DHT22;5881;48.522;7.682;2024-01-30T07:22:32;0.80;1.00
11650;DHT22;5881;48.522;7.682;2024-01-30T07:24:59;0.90;1.00
11650;DHT22;5881;48.522;7.682;2024-01-30T07:27:24;0.90;1.00
11650;DHT22;5881;48.522;7.682;2024-01-30T07:29:50;1.00;1.00
11650;DHT22;5881;48.522;7.682;2024-01-30T07:32:16;1.10;1.00
11650;DHT22;5881;48.522;7.682;2024-01-30T07:34:41;1.20;1.00
11650;DHT22;5881;48.522;7.682;2024-01-30T07:37:07;1.30;1.00
11650;DHT22;5881;48.522;7.682;2024-01-30T07:39:34;1.50;1.00
11650;DHT22;5881;48.522;7.682;2024-01-30T07:42:00;1.60;1.00
11650;DHT22;5881;48.522;7.682;2024-01-30T07:44:25;1.80;1.00
11650;DHT22;5881;48.522;7.682;2024-01-30T07:46:51;2.20;1.00
11650;DHT22;5881;48.522;7.682;2024-01-30T07:49:17;2.90;1.00
11650;DHT22;5881;48.522;7.682;2024-01-30T07:51:42;3.40;1.00
11650;DHT22;5881;48.522;7.682;2024-01-30T07:54:15;3.60;71.20
11650;DHT22;5881;48.522;7.682;2024-01-30T07:56:41;3.50;1.00
11650;DHT22;5881;48.522;7.682;2024-01-30T07:59:10;3.30;1.00
11650;DHT22;5881;48.522;7.682;2024-01-30T08:01:36;3.40;1.00
11650;DHT22;5881;48.522;7.682;2024-01-30T08:04:01;3.70;1.00
11650;DHT22;5881;48.522;7.682;2024-01-30T08:06:27;4.00;1.00
11650;DHT22;5881;48.522;7.682;2024-01-30T08:08:52;3.80;99.90
11650;DHT22;5881;48.522;7.682;2024-01-30T08:11:20;3.50;1.00
11650;DHT22;5881;48.522;7.682;2024-01-30T08:13:46;3.20;1.00
11650;DHT22;5881;48.522;7.682;2024-01-30T08:16:11;2.80;1.00
11650;DHT22;5881;48.522;7.682;2024-01-30T08:18:37;2.90;1.00
11650;DHT22;5881;48.522;7.682;2024-01-30T08:21:03;2.80;1.00
11650;DHT22;5881;48.522;7.682;2024-01-30T08:23:28;2.70;1.00
11650;DHT22;5881;48.522;7.682;2024-01-30T08:25:54;2.70;99.90
11650;DHT22;5881;48.522;7.682;2024-01-30T08:28:20;2.60;99.90
11650;DHT22;5881;48.522;7.682;2024-01-30T08:30:45;2.60;1.00
11650;DHT22;5881;48.522;7.682;2024-01-30T08:33:11;2.60;1.00
11650;DHT22;5881;48.522;7.682;2024-01-30T08:35:36;2.60;1.00
11650;DHT22;5881;48.522;7.682;2024-01-30T08:38:03;2.80;76.20
11650;DHT22;5881;48.522;7.682;2024-01-30T08:40:29;3.10;1.00
11650;DHT22;5881;48.522;7.682;2024-01-30T08:42:55;3.40;99.90
11650;DHT22;5881;48.522;7.682;2024-01-30T08:45:20;3.60;1.00
11650;DHT22;5881;48.522;7.682;2024-01-30T08:47:46;3.90;1.00
11650;DHT22;5881;48.522;7.682;2024-01-30T08:50:11;4.00;1.00
11650;DHT22;5881;48.522;7.682;2024-01-30T08:52:37;4.20;1.00
11650;DHT22;5881;48.522;7.682;2024-01-30T08:55:03;4.20;1.00
11650;DHT22;5881;48.522;7.682;2024-01-30T08:57:30;4.30;1.00
11650;DHT22;5881;48.522;7.682;2024-01-30T08:59:56;4.30;1.00
11650;DHT22;5881;48.522;7.682;2024-01-30T09:02:21;4.30;1.00
11650;DHT22;5881;48.522;7.682;2024-01-30T09:04:47;4.40;1.00
11650;DHT22;5881;48.522;7.682;2024-01-30T09:07:13;4.40;1.00
11650;DHT22;5881;48.522;7.682;2024-01-30T09:09:39;4.40;99.90
11650;DHT22;5881;48.522;7.682;2024-01-30T09:12:08;4.40;99.90
11650;DHT22;5881;48.522;7.682;2024-01-30T09:14:37;4.50;99.90
11650;DHT22;5881;48.522;7.682;2024-01-30T09:17:03;4.40;99.90
11650;DHT22;5881;48.522;7.682;2024-01-30T09:19:30;4.50;99.90
11650;DHT22;5881;48.522;7.682;2024-01-30T09:21:55;4.60;99.90
11650;DHT22;5881;48.522;7.682;2024-01-30T09:24:21;4.60;99.90
11650;DHT22;5881;48.522;7.682;2024-01-30T09:26:47;4.70;99.90
11650;DHT22;5881;48.522;7.682;2024-01-30T09:29:12;4.80;99.90
11650;DHT22;5881;48.522;7.682;2024-01-30T09:31:38;4.90;99.90
11650;DHT22;5881;48.522;7.682;2024-01-30T09:34:03;5.00;99.90
11650;DHT22;5881;48.522;7.682;2024-01-30T09:36:29;5.30;99.90
11650;DHT22;5881;48.522;7.682;2024-01-30T09:38:55;5.50;99.90
11650;DHT22;5881;48.522;7.682;2024-01-30T09:41:24;5.60;99.90
11650;DHT22;5881;48.522;7.682;2024-01-30T09:43:50;5.70;99.90
11650;DHT22;5881;48.522;7.682;2024-01-30T09:46:17;5.80;99.90
11650;DHT22;5881;48.522;7.682;2024-01-30T09:48:49;5.70;99.90
11650;DHT22;5881;48.522;7.682;2024-01-30T09:51:15;5.70;99.90
11650;DHT22;5881;48.522;7.682;2024-01-30T09:53:42;5.80;99.90
11650;DHT22;5881;48.522;7.682;2024-01-30T09:56:09;5.80;99.90
11650;DHT22;5881;48.522;7.682;2024-01-30T09:58:36;5.70;99.90
11650;DHT22;5881;48.522;7.682;2024-01-30T10:01:02;5.90;99.90
11650;DHT22;5881;48.522;7.682;2024-01-30T10:03:27;6.20;99.90
11650;DHT22;5881;48.522;7.682;2024-01-30T10:05:55;6.50;99.90
11650;DHT22;5881;48.522;7.682;2024-01-30T10:08:21;6.80;99.90
11650;DHT22;5881;48.522;7.682;2024-01-30T10:10:47;7.00;99.90
11650;DHT22;5881;48.522;7.682;2024-01-30T10:13:13;7.20;99.90
11650;DHT22;5881;48.522;7.682;2024-01-30T10:15:39;7.60;99.90
11650;DHT22;5881;48.522;7.682;2024-01-30T10:18:06;7.90;99.90
11650;DHT22;5881;48.522;7.682;2024-01-30T10:20:32;7.70;99.90
11650;DHT22;5881;48.522;7.682;2024-01-30T10:22:58;7.70;99.90
11650;DHT22;5881;48.522;7.682;2024-01-30T10:25:24;8.00;99.90
11650;DHT22;5881;48.522;7.682;2024-01-30T10:27:54;7.60;99.90
11650;DHT22;5881;48.522;7.682;2024-01-30T10:30:21;7.40;99.90
11650;DHT22;5881;48.522;7.682;2024-01-30T10:32:47;7.40;99.90
11650;DHT22;5881;48.522;7.682;2024-01-30T10:35:13;7.30;99.90
11650;DHT22;5881;48.522;7.682;2024-01-30T10:37:38;7.40;99.90
11650;DHT22;5881;48.522;7.682;2024-01-30T10:40:04;7.70;99.90
11650;DHT22;5881;48.522;7.682;2024-01-30T10:42:32;7.90;99.90
11650;DHT22;5881;48.522;7.682;2024-01-30T10:45:06;8.10;99.90
11650;DHT22;5881;48.522;7.682;2024-01-30T10:47:35;8.50;99.90
11650;DHT22;5881;48.522;7.682;2024-01-30T10:50:04;8.90;99.90
11650;DHT22;5881;48.522;7.682;2024-01-30T10:52:32;8.70;99.90
11650;DHT22;5881;48.522;7.682;2024-01-30T10:54:58;8.50;99.90
11650;DHT22;5881;48.522;7.682;2024-01-30T10:57:25;8.60;99.90
11650;DHT22;5881;48.522;7.682;2024-01-30T10:59:55;8.80;99.90
11650;DHT22;5881;48.522;7.682;2024-01-30T11:02:22;8.90;99.90
11650;DHT22;5881;48.522;7.682;2024-01-30T11:04:49;9.00;99.90
11650;DHT22;5881;48.522;7.682;2024-01-30T11:07:18;9.00;99.90
11650;DHT22;5881;48.522;7.682;2024-01-30T11:09:51;8.90;99.90
11650;DHT22;5881;48.522;7.682;2024-01-30T11:12:16;9.10;99.90
11650;DHT22;5881;48.522;7.682;2024-01-30T11:14:42;9.10;99.90
11650;DHT22;5881;48.522;7.682;2024-01-30T11:17:09;9.20;99.90
11650;DHT22;5881;48.522;7.682;2024-01-30T11:19:37;9.40;99.90
11650;DHT22;5881;48.522;7.682;2024-01-30T11:22:03;9.90;99.90
11650;DHT22;5881;48.522;7.682;2024-01-30T11:24:39;10.30;99.90
11650;DHT22;5881;48.522;7.682;2024-01-30T11:27:08;10.20;99.90
11650;DHT22;5881;48.522;7.682;2024-01-30T11:29:35;10.10;99.90
11650;DHT22;5881;48.522;7.682;2024-01-30T11:32:00;10.00;99.90
11650;DHT22;5881;48.522;7.682;2024-01-30T11:34:26;10.00;99.90
11650;DHT22;5881;48.522;7.682;2024-01-30T11:36:56;10.00;99.90
11650;DHT22;5881;48.522;7.682;2024-01-30T11:39:25;10.00;99.90
11650;DHT22;5881;48.522;7.682;2024-01-30T11:41:51;9.90;99.90
11650;DHT22;5881;48.522;7.682;2024-01-30T11:44:21;10.20;99.90
11650;DHT22;5881;48.522;7.682;2024-01-30T11:46:50;10.20;99.90
11650;DHT22;5881;48.522;7.682;2024-01-30T11:49:16;10.70;99.90
11650;DHT22;5881;48.522;7.682;2024-01-30T11:51:48;11.00;99.90
11650;DHT22;5881;48.522;7.682;2024-01-30T11:54:18;11.20;99.90
11650;DHT22;5881;48.522;7.682;2024-01-30T11:56:43;10.70;99.90
11650;DHT22;5881;48.522;7.682;2024-01-30T11:59:09;10.60;99.90
11650;DHT22;5881;48.522;7.682;2024-01-30T12:01:35;10.70;99.90
11650;DHT22;5881;48.522;7.682;2024-01-30T12:04:01;10.80;99.90
11650;DHT22;5881;48.522;7.682;2024-01-30T12:06:27;10.80;99.90
11650;DHT22;5881;48.522;7.682;2024-01-30T12:09:00;10.60;99.90
11650;DHT22;5881;48.522;7.682;2024-01-30T12:11:27;10.60;99.90
11650;DHT22;5881;48.522;7.682;2024-01-30T12:13:53;10.90;99.90
11650;DHT22;5881;48.522;7.682;2024-01-30T12:16:19;10.70;99.90
11650;DHT22;5881;48.522;7.682;2024-01-30T12:18:45;10.80;99.90
11650;DHT22;5881;48.522;7.682;2024-01-30T12:21:11;11.10;99.90
11650;DHT22;5881;48.522;7.682;2024-01-30T12:23:37;11.10;99.90
11650;DHT22;5881;48.522;7.682;2024-01-30T12:26:03;10.80;99.90
11650;DHT22;5881;48.522;7.682;2024-01-30T12:28:32;10.70;99.90
11650;DHT22;5881;48.522;7.682;2024-01-30T12:31:02;10.80;99.90
11650;DHT22;5881;48.522;7.682;2024-01-30T12:33:29;10.80;99.90
11650;DHT22;5881;48.522;7.682;2024-01-30T12:35:54;10.80;99.90
11650;DHT22;5881;48.522;7.682;2024-01-30T12:38:20;10.90;99.90
11650;DHT22;5881;48.522;7.682;2024-01-30T12:40:46;10.90;99.90
11650;DHT22;5881;48.522;7.682;2024-01-30T12:43:13;11.10;99.90
11650;DHT22;5881;48.522;7.682;2024-01-30T12:45:39;11.10;99.90
11650;DHT22;5881;48.522;7.682;2024-01-30T12:48:05;11.00;99.90
11650;DHT22;5881;48.522;7.682;2024-01-30T12:50:31;11.10;99.90
11650;DHT22;5881;48.522;7.682;2024-01-30T12:52:56;11.10;99.90
11650;DHT22;5881;48.522;7.682;2024-01-30T12:55:22;11.10;99.90
11650;DHT22;5881;48.522;7.682;2024-01-30T12:57:48;11.20;99.90
11650;DHT22;5881;48.522;7.682;2024-01-30T13:00:13;11.20;99.90
11650;DHT22;5881;48.522;7.682;2024-01-30T13:02:39;11.20;99.90
11650;DHT22;5881;48.522;7.682;2024-01-30T13:05:05;11.20;99.90
11650;DHT22;5881;48.522;7.682;2024-01-30T13:07:31;11.20;99.90
11650;DHT22;5881;48.522;7.682;2024-01-30T13:09:57;11.20;99.90
11650;DHT22;5881;48.522;7.682;2024-01-30T13:12:29;11.20;99.90
11650;DHT22;5881;48.522;7.682;2024-01-30T13:14:55;11.20;99.90
11650;DHT22;5881;48.522;7.682;2024-01-30T13:17:21;11.20;99.90
11650;DHT22;5881;48.522;7.682;2024-01-30T13:19:46;11.20;99.90
11650;DHT22;5881;48.522;7.682;2024-01-30T13:22:14;11.20;99.90
11650;DHT22;5881;48.522;7.682;2024-01-30T13:24:40;11.20;99.90
11650;DHT22;5881;48.522;7.682;2024-01-30T13:27:07;11.30;99.90
11650;DHT22;5881;48.522;7.682;2024-01-30T13:29:32;11.20;99.90
11650;DHT22;5881;48.522;7.682;2024-01-30T13:31:58;10.90;99.90
11650;DHT22;5881;48.522;7.682;2024-01-30T13:34:24;10.90;99.90
11650;DHT22;5881;48.522;7.682;2024-01-30T13:36:50;10.90;99.90
11650;DHT22;5881;48.522;7.682;2024-01-30T13:39:16;11.00;99.90
11650;DHT22;5881;48.522;7.682;2024-01-30T13:41:44;11.00;99.90
11650;DHT22;5881;48.522;7.682;2024-01-30T13:44:10;11.00;99.90
11650;DHT22;5881;48.522;7.682;2024-01-30T13:46:36;10.90;99.90
11650;DHT22;5881;48.522;7.682;2024-01-30T13:49:02;10.90;99.90
11650;DHT22;5881;48.522;7.682;2024-01-30T13:51:28;10.90;99.90
11650;DHT22;5881;48.522;7.682;2024-01-30T13:53:53;10.80;99.90
11650;DHT22;5881;48.522;7.682;2024-01-30T13:56:22;10.80;99.90
11650;DHT22;5881;48.522;7.682;2024-01-30T13:58:50;10.90;99.90
11650;DHT22;5881;48.522;7.682;2024-01-30T14:01:16;10.90;99.90
11650;DHT22;5881;48.522;7.682;2024-01-30T14:03:42;10.80;99.90
11650;DHT22;5881;48.522;7.682;2024-01-30T14:06:08;10.90;99.90
11650;DHT22;5881;48.522;7.682;2024-01-30T14:08:34;10.90;99.90
11650;DHT22;5881;48.522;7.682;2024-01-30T14:10:59;10.90;99.90
11650;DHT22;5881;48.522;7.682;2024-01-30T14:13:25;10.90;99.90
11650;DHT22;5881;48.522;7.682;2024-01-30T14:15:52;11.00;99.90
11650;DHT22;5881;48.522;7.682;2024-01-30T14:18:18;10.90;99.90
11650;DHT22;5881;48.522;7.682;2024-01-30T14:20:44;10.80;99.90
11650;DHT22;5881;48.522;7.682;2024-01-30T14:23:09;10.80;99.90
11650;DHT22;5881;48.522;7.682;2024-01-30T14:25:35;10.90;99.90
11650;DHT22;5881;48.522;7.682;2024-01-30T14:28:01;10.80;99.90
11650;DHT22;5881;48.522;7.682;2024-01-30T14:30:26;10.90;99.90
11650;DHT22;5881;48.522;7.682;2024-01-30T14:32:52;10.80;99.90
11650;DHT22;5881;48.522;7.682;2024-01-30T14:35:18;10.80;99.90
11650;DHT22;5881;48.522;7.682;2024-01-30T14:37:45;10.70;99.90
11650;DHT22;5881;48.522;7.682;2024-01-30T14:40:10;10.60;99.90
11650;DHT22;5881;48.522;7.682;2024-01-30T14:42:36;10.50;99.90
11650;DHT22;5881;48.522;7.682;2024-01-30T14:45:03;10.50;99.90
11650;DHT22;5881;48.522;7.682;2024-01-30T14:47:29;10.50;99.90
11650;DHT22;5881;48.522;7.682;2024-01-30T14:49:56;10.40;99.90
11650;DHT22;5881;48.522;7.682;2024-01-30T14:52:22;10.50;99.90
11650;DHT22;5881;48.522;7.682;2024-01-30T14:54:47;10.50;99.90
11650;DHT22;5881;48.522;7.682;2024-01-30T14:57:13;10.50;99.90
11650;DHT22;5881;48.522;7.682;2024-01-30T14:59:40;10.50;99.90
11650;DHT22;5881;48.522;7.682;2024-01-30T15:02:06;10.50;99.90
11650;DHT22;5881;48.522;7.682;2024-01-30T15:04:31;10.40;99.90
11650;DHT22;5881;48.522;7.682;2024-01-30T15:06:57;10.40;99.90
11650;DHT22;5881;48.522;7.682;2024-01-30T15:09:23;10.30;99.90
11650;DHT22;5881;48.522;7.682;2024-01-30T15:11:51;10.30;99.90
11650;DHT22;5881;48.522;7.682;2024-01-30T15:14:17;10.20;99.90
11650;DHT22;5881;48.522;7.682;2024-01-30T15:16:43;10.20;99.90
11650;DHT22;5881;48.522;7.682;2024-01-30T15:19:09;10.10;99.90
11650;DHT22;5881;48.522;7.682;2024-01-30T15:21:34;10.00;99.90
11650;DHT22;5881;48.522;7.682;2024-01-30T15:24:00;10.00;99.90
11650;DHT22;5881;48.522;7.682;2024-01-30T15:26:26;9.80;99.90
11650;DHT22;5881;48.522;7.682;2024-01-30T15:28:52;9.90;99.90
11650;DHT22;5881;48.522;7.682;2024-01-30T15:31:17;9.80;99.90
11650;DHT22;5881;48.522;7.682;2024-01-30T15:33:43;9.70;99.90
11650;DHT22;5881;48.522;7.682;2024-01-30T15:36:09;9.70;99.90
11650;DHT22;5881;48.522;7.682;2024-01-30T15:38:36;9.60;99.90
11650;DHT22;5881;48.522;7.682;2024-01-30T15:41:01;9.50;99.90
11650;DHT22;5881;48.522;7.682;2024-01-30T15:43:27;9.50;99.90
11650;DHT22;5881;48.522;7.682;2024-01-30T15:45:53;9.40;99.90
11650;DHT22;5881;48.522;7.682;2024-01-30T15:48:19;9.40;99.90
11650;DHT22;5881;48.522;7.682;2024-01-30T15:50:45;9.40;99.90
11650;DHT22;5881;48.522;7.682;2024-01-30T15:53:11;9.30;99.90
11650;DHT22;5881;48.522;7.682;2024-01-30T15:55:36;9.30;99.90